createdAt,value
2023-04-16T00:01:06.081Z,23.55
2023-04-16T00:03:33.017Z,23.17
2023-04-16T00:05:59.848Z,20.48
2023-04-16T00:08:26.565Z,18.38
2023-04-16T00:10:54.008Z,18.52
2023-04-16T00:13:21.125Z,17.58
2023-04-16T00:15:47.732Z,15.70
2023-04-16T00:18:14.595Z,15.45
2023-04-16T00:20:41.271Z,15.25
2023-04-16T00:23:07.965Z,16.95
2023-04-16T00:25:34.563Z,14.63
2023-04-16T00:28:01.186Z,12.95
2023-04-16T00:30:27.904Z,14.63
2023-04-16T00:32:54.541Z,12.57
2023-04-16T00:35:21.452Z,13.13
2023-04-16T00:37:48.039Z,19.20
2023-04-16T00:40:14.605Z,12.93
2023-04-16T00:42:41.554Z,15.00
2023-04-16T00:45:09.129Z,17.50
2023-04-16T00:47:35.943Z,12.70
2023-04-16T00:50:04.605Z,16.65
2023-04-16T00:52:33.068Z,23.17
2023-04-16T00:54:59.734Z,14.77
2023-04-16T00:57:27.167Z,18.15
2023-04-16T00:59:54.380Z,19.98
2023-04-16T01:02:21.064Z,24.65
2023-04-16T01:04:47.707Z,18.75
2023-04-16T01:07:14.438Z,21.45
2023-04-16T01:09:41.027Z,21.38
2023-04-16T01:12:07.699Z,17.85
2023-04-16T01:14:36.493Z,17.88
2023-04-16T01:17:04.082Z,19.00
2023-04-16T01:19:36.322Z,20.75
2023-04-16T01:22:03.682Z,24.00
2023-04-16T01:24:30.563Z,22.42
2023-04-16T01:27:00.315Z,22.33
2023-04-16T01:29:27.187Z,25.92
2023-04-16T01:31:54.490Z,21.25
2023-04-16T01:34:21.139Z,31.15
2023-04-16T01:36:47.746Z,32.58
2023-04-16T01:39:16.496Z,41.38
2023-04-16T01:41:43.756Z,32.15
2023-04-16T01:44:10.595Z,29.90
2023-04-16T01:46:37.948Z,31.70
2023-04-16T01:49:05.325Z,41.58
2023-04-16T01:51:32.361Z,31.95
2023-04-16T01:53:59.068Z,32.50
2023-04-16T01:56:26.265Z,24.30
2023-04-16T01:58:53.503Z,90.05
2023-04-16T02:01:20.362Z,62.22
2023-04-16T02:03:47.765Z,43.33
2023-04-16T02:06:15.059Z,55.83
2023-04-16T02:08:41.920Z,61.45
2023-04-16T02:11:08.556Z,42.45
2023-04-16T02:13:35.367Z,44.03
2023-04-16T02:16:02.720Z,39.25
2023-04-16T02:18:29.420Z,118.30
2023-04-16T02:20:59.489Z,38.70
2023-04-16T02:23:26.251Z,42.85
2023-04-16T02:25:52.876Z,42.10
2023-04-16T02:28:19.477Z,36.70
2023-04-16T02:30:46.121Z,33.17
2023-04-16T02:33:13.055Z,35.38
2023-04-16T02:35:40.454Z,42.13
2023-04-16T02:38:07.804Z,35.35
2023-04-16T02:40:34.482Z,45.08
2023-04-16T02:43:01.218Z,44.85
2023-04-16T02:45:27.958Z,48.83
2023-04-16T02:47:54.618Z,33.95
2023-04-16T02:50:21.410Z,30.40
2023-04-16T02:52:48.692Z,37.25
2023-04-16T02:55:15.401Z,33.13
2023-04-16T02:57:42.671Z,34.30
2023-04-16T03:00:10.003Z,32.90
2023-04-16T03:02:36.880Z,34.13
2023-04-16T03:05:04.171Z,42.20
2023-04-16T03:07:30.848Z,31.80
2023-04-16T03:09:57.495Z,45.08
2023-04-16T03:12:24.060Z,34.05
2023-04-16T03:14:52.548Z,39.25
2023-04-16T03:17:19.412Z,37.92
2023-04-16T03:19:46.225Z,24.33
2023-04-16T03:22:12.978Z,75.93
2023-04-16T03:24:39.620Z,31.40
2023-04-16T03:27:06.292Z,24.55
2023-04-16T03:29:32.918Z,22.67
2023-04-16T03:31:59.617Z,21.95
2023-04-16T03:34:26.302Z,25.15
2023-04-16T03:36:52.897Z,20.52
2023-04-16T03:39:19.498Z,27.17
2023-04-16T03:41:46.311Z,20.13
2023-04-16T03:44:12.918Z,23.23
2023-04-16T03:46:39.667Z,19.52
2023-04-16T03:49:08.796Z,21.67
2023-04-16T03:51:35.633Z,26.20
2023-04-16T03:54:02.283Z,27.08
2023-04-16T03:56:28.945Z,26.83
2023-04-16T03:58:55.789Z,23.52
2023-04-16T04:01:22.457Z,28.10
2023-04-16T04:03:49.352Z,35.25
2023-04-16T04:06:16.545Z,32.60
2023-04-16T04:08:43.142Z,40.78
2023-04-16T04:11:09.880Z,62.67
2023-04-16T04:13:36.470Z,110.50
2023-04-16T04:16:03.213Z,81.50
2023-04-16T04:18:29.843Z,84.93
2023-04-16T04:20:56.552Z,55.55
2023-04-16T04:23:23.282Z,163.20
2023-04-16T04:25:50.149Z,99.80
2023-04-16T04:28:16.869Z,167.63
2023-04-16T04:30:43.510Z,308.95
2023-04-16T04:33:10.194Z,175.25
2023-04-16T04:35:36.920Z,113.25
2023-04-16T04:38:03.695Z,203.88
2023-04-16T04:40:30.526Z,281.70
2023-04-16T04:42:57.114Z,218.20
2023-04-16T04:45:26.772Z,258.50
2023-04-16T04:47:53.606Z,140.95
2023-04-16T04:50:21.835Z,171.52
2023-04-16T04:52:48.430Z,153.93
2023-04-16T04:55:16.073Z,78.97
2023-04-16T04:57:42.854Z,65.25
2023-04-16T05:00:09.914Z,72.63
2023-04-16T05:02:36.670Z,51.83
2023-04-16T05:05:04.156Z,67.60
2023-04-16T05:07:30.930Z,67.07
2023-04-16T05:09:57.594Z,57.35
2023-04-16T05:12:24.322Z,62.47
2023-04-16T05:14:50.989Z,54.78
2023-04-16T05:17:17.676Z,65.80
2023-04-16T05:19:44.286Z,54.28
2023-04-16T05:22:10.981Z,51.47
2023-04-16T05:24:37.547Z,52.45
2023-04-16T05:27:04.277Z,52.67
2023-04-16T05:29:30.932Z,54.55
2023-04-16T05:31:57.630Z,56.92
2023-04-16T05:34:24.210Z,50.92
2023-04-16T05:36:50.853Z,51.95
2023-04-16T05:39:18.096Z,49.25
2023-04-16T05:41:44.769Z,53.03
2023-04-16T05:44:11.513Z,64.38
2023-04-16T05:46:38.213Z,65.20
2023-04-16T05:49:05.004Z,123.60
2023-04-16T05:51:32.440Z,112.18
2023-04-16T05:53:59.033Z,106.45
2023-04-16T05:56:26.411Z,132.52
2023-04-16T05:58:53.115Z,80.97
2023-04-16T06:01:19.787Z,134.00
2023-04-16T06:03:46.512Z,245.95
2023-04-16T06:06:13.283Z,215.25
2023-04-16T06:08:39.824Z,191.02
2023-04-16T06:11:06.686Z,334.10
2023-04-16T06:13:33.229Z,232.63
2023-04-16T06:15:59.974Z,148.80
2023-04-16T06:18:26.577Z,231.52
2023-04-16T06:20:53.281Z,425.45
2023-04-16T06:23:20.016Z,202.40
2023-04-16T06:25:46.581Z,272.98
2023-04-16T06:28:13.163Z,273.20
2023-04-16T06:30:40.109Z,212.63
2023-04-16T06:33:06.777Z,259.83
2023-04-16T06:35:33.410Z,225.70
2023-04-16T06:38:00.100Z,183.10
2023-04-16T06:40:26.849Z,291.55
2023-04-16T06:42:54.013Z,138.20
2023-04-16T06:45:20.695Z,165.20
2023-04-16T06:47:48.194Z,214.70
2023-04-16T06:50:14.987Z,210.23
2023-04-16T06:52:41.621Z,261.42
2023-04-16T06:55:09.840Z,253.93
2023-04-16T06:57:37.641Z,236.05
2023-04-16T07:00:07.624Z,157.25
2023-04-16T07:02:34.452Z,277.23
2023-04-16T07:05:01.386Z,244.63
2023-04-16T07:07:28.067Z,244.73
2023-04-16T07:09:54.642Z,214.88
2023-04-16T07:12:22.612Z,138.60
2023-04-16T07:14:49.665Z,215.90
2023-04-16T07:17:16.378Z,136.45
2023-04-16T07:19:43.033Z,128.10
2023-04-16T07:22:09.702Z,207.73
2023-04-16T07:24:36.491Z,124.28
2023-04-16T07:27:03.160Z,116.05
2023-04-16T07:29:29.848Z,126.45
2023-04-16T07:31:57.568Z,113.60
2023-04-16T07:34:24.271Z,135.93
2023-04-16T07:36:50.959Z,108.13
2023-04-16T07:39:17.544Z,106.47
2023-04-16T07:41:44.190Z,96.35
2023-04-16T07:44:10.941Z,139.05
2023-04-16T07:46:46.050Z,96.75
2023-04-16T07:49:13.479Z,102.30
2023-04-16T07:51:40.090Z,88.57
2023-04-16T07:54:06.666Z,98.72
2023-04-16T07:56:33.382Z,86.05
2023-04-16T07:59:07.887Z,81.93
2023-04-16T08:01:41.578Z,82.15
2023-04-16T08:04:08.397Z,79.47
2023-04-16T08:06:35.090Z,84.57
2023-04-16T08:09:01.777Z,84.65
2023-04-16T08:11:28.603Z,85.38
2023-04-16T08:13:55.292Z,88.30
2023-04-16T08:16:22.022Z,75.53
2023-04-16T08:18:48.714Z,81.53
2023-04-16T08:21:15.495Z,81.95
2023-04-16T08:23:42.142Z,71.38
2023-04-16T08:26:08.857Z,76.65
2023-04-16T08:28:35.562Z,67.72
2023-04-16T08:31:02.277Z,70.97
2023-04-16T08:33:28.937Z,66.03
2023-04-16T08:35:55.578Z,70.50
2023-04-16T08:38:22.208Z,71.75
2023-04-16T08:40:49.133Z,77.03
2023-04-16T08:43:16.586Z,73.75
2023-04-16T08:45:44.196Z,71.13
2023-04-16T08:48:12.269Z,73.80
2023-04-16T08:50:38.949Z,69.82
2023-04-16T08:53:06.981Z,71.25
2023-04-16T08:55:40.283Z,77.43
2023-04-16T08:58:18.979Z,68.65
2023-04-16T09:00:46.520Z,69.22
2023-04-16T09:03:13.805Z,70.13
2023-04-16T09:05:42.560Z,74.10
2023-04-16T09:08:09.462Z,63.70
2023-04-16T09:10:36.363Z,69.05
2023-04-16T09:13:03.368Z,70.78
2023-04-16T09:15:31.243Z,70.72
2023-04-16T09:17:59.048Z,68.50
2023-04-16T09:20:26.212Z,76.53
2023-04-16T09:22:53.264Z,64.60
2023-04-16T09:25:22.705Z,71.80
2023-04-16T09:27:51.393Z,70.20
2023-04-16T09:30:28.171Z,73.53
2023-04-16T09:33:13.816Z,74.28
2023-04-16T09:35:48.053Z,73.45
2023-04-16T09:38:14.921Z,76.03
2023-04-16T09:40:41.768Z,66.82
2023-04-16T09:43:12.852Z,72.97
2023-04-16T09:45:53.400Z,72.78
2023-04-16T09:48:30.656Z,70.87
2023-04-16T09:50:58.274Z,63.88
2023-04-16T09:53:33.987Z,62.90
2023-04-16T09:56:02.531Z,60.13
2023-04-16T09:58:29.857Z,65.88
2023-04-16T10:01:11.084Z,65.00
2023-04-16T10:03:40.570Z,55.13
2023-04-16T10:06:19.698Z,61.55
2023-04-16T10:08:50.861Z,57.08
2023-04-16T10:11:18.300Z,56.85
2023-04-16T10:13:45.486Z,57.95
2023-04-16T10:16:12.826Z,54.30
2023-04-16T10:18:41.789Z,52.70
2023-04-16T10:21:12.218Z,51.25
2023-04-16T10:23:40.537Z,49.27
2023-04-16T10:26:07.454Z,55.03
2023-04-16T10:28:37.645Z,53.22
2023-04-16T10:31:09.430Z,49.38
2023-04-16T10:33:40.132Z,47.88
2023-04-16T10:36:18.109Z,46.90
2023-04-16T10:38:53.499Z,44.53
2023-04-16T10:41:21.387Z,43.25
2023-04-16T10:43:50.291Z,44.30
2023-04-16T10:46:27.028Z,42.80
2023-04-16T10:48:56.429Z,46.08
2023-04-16T10:51:24.418Z,45.92
2023-04-16T10:53:51.454Z,42.63
2023-04-16T10:56:26.417Z,42.67
2023-04-16T10:58:57.640Z,43.20
2023-04-16T11:04:23.719Z,42.08
2023-04-16T11:07:18.130Z,44.92
2023-04-16T11:10:02.657Z,37.97
2023-04-16T11:12:35.672Z,39.10
2023-04-16T11:15:21.676Z,40.53
2023-04-16T11:17:53.627Z,38.95
2023-04-16T11:20:30.611Z,38.47
2023-04-16T11:22:59.002Z,36.35
2023-04-16T11:25:39.918Z,36.60
2023-04-16T11:28:06.654Z,37.00
2023-04-16T11:30:35.591Z,36.85
2023-04-16T11:33:07.108Z,34.58
2023-04-16T11:35:34.370Z,39.28
2023-04-16T11:38:01.261Z,32.35
2023-04-16T11:40:31.794Z,33.10
2023-04-16T11:43:13.986Z,32.22
2023-04-16T11:45:56.390Z,33.92
2023-04-16T11:48:23.139Z,32.33
2023-04-16T11:50:57.269Z,35.58
2023-04-16T11:53:23.955Z,34.97
2023-04-16T11:55:50.920Z,31.33
2023-04-16T11:58:17.954Z,33.38
2023-04-16T12:00:45.837Z,31.40
2023-04-16T12:03:18.054Z,31.83
2023-04-16T12:05:48.602Z,28.60
2023-04-16T12:08:32.043Z,26.90
2023-04-16T12:11:04.896Z,28.38
2023-04-16T12:13:44.507Z,29.55
2023-04-16T12:28:16.846Z,31.30
2023-04-16T12:30:53.231Z,26.65
2023-04-16T12:33:21.260Z,25.88
2023-04-16T12:35:48.236Z,27.08
2023-04-16T12:38:15.533Z,26.77
2023-04-16T12:40:42.548Z,30.55
2023-04-16T12:43:12.810Z,29.10
2023-04-16T12:45:40.588Z,29.48
2023-04-16T12:48:07.650Z,30.55
2023-04-16T12:50:34.889Z,23.65
2023-04-16T12:53:01.722Z,27.75
2023-04-16T12:55:28.649Z,31.25
2023-04-16T12:57:55.838Z,30.00
2023-04-16T13:00:22.804Z,29.42
2023-04-16T13:02:49.779Z,27.45
2023-04-16T13:05:19.381Z,28.23
2023-04-16T13:07:46.338Z,24.05
2023-04-16T13:10:13.577Z,28.23
2023-04-16T13:12:40.433Z,30.08
2023-04-16T13:15:07.805Z,27.17
2023-04-16T13:17:34.498Z,29.73
2023-04-16T13:20:01.386Z,29.75
2023-04-16T13:22:28.447Z,28.45
2023-04-16T13:24:55.480Z,29.80
2023-04-16T13:27:22.115Z,29.08
2023-04-16T13:29:48.795Z,34.10
2023-04-16T13:32:15.563Z,32.30
2023-04-16T13:34:42.650Z,30.52
2023-04-16T13:37:09.320Z,31.10
2023-04-16T13:39:36.108Z,30.13
2023-04-16T13:42:02.829Z,32.22
2023-04-16T13:44:29.744Z,33.28
2023-04-16T13:46:56.735Z,32.83
2023-04-16T13:49:23.608Z,28.52
2023-04-16T13:51:50.649Z,27.48
2023-04-16T13:54:17.731Z,30.75
2023-04-16T13:56:44.667Z,27.35
2023-04-16T13:59:11.579Z,28.63
2023-04-16T14:01:38.538Z,27.42
2023-04-16T14:04:07.593Z,26.77
2023-04-16T14:06:34.852Z,26.77
2023-04-16T14:09:02.001Z,25.80
2023-04-16T14:11:28.803Z,28.50
2023-04-16T14:13:55.709Z,29.23
2023-04-16T14:16:22.520Z,26.92
2023-04-16T14:18:49.225Z,25.55
2023-04-16T14:21:15.933Z,25.80
2023-04-16T14:23:42.628Z,27.40
2023-04-16T14:26:09.289Z,26.48
2023-04-16T14:28:35.973Z,27.63
2023-04-16T14:31:02.635Z,29.48
2023-04-16T14:33:29.440Z,27.05
2023-04-16T14:35:56.182Z,29.63
2023-04-16T14:38:22.898Z,28.08
2023-04-16T14:40:49.626Z,30.27
2023-04-16T14:43:16.443Z,32.42
2023-04-16T14:45:43.360Z,33.05
2023-04-16T14:48:10.145Z,26.80
2023-04-16T14:50:38.081Z,28.63
2023-04-16T14:53:05.704Z,30.23
2023-04-16T14:55:32.759Z,27.27
2023-04-16T14:57:59.949Z,27.75
2023-04-16T15:00:27.679Z,29.05
2023-04-16T15:02:57.956Z,24.45
2023-04-16T15:05:24.864Z,26.17
2023-04-16T15:07:51.641Z,29.10
2023-04-16T15:10:18.408Z,23.40
2023-04-16T15:12:45.112Z,28.58
2023-04-16T15:15:11.969Z,26.38
2023-04-16T15:17:39.012Z,28.05
2023-04-16T15:20:08.333Z,24.38
2023-04-16T15:22:35.144Z,26.98
2023-04-16T15:25:03.370Z,26.50
2023-04-16T15:27:30.166Z,24.27
2023-04-16T15:29:57.179Z,22.33
2023-04-16T15:32:24.096Z,23.02
2023-04-16T15:34:51.035Z,25.58
2023-04-16T15:37:17.714Z,21.67
2023-04-16T15:39:44.690Z,21.83
2023-04-16T15:42:11.585Z,22.77
2023-04-16T15:44:38.229Z,24.15
2023-04-16T15:47:06.470Z,23.50
2023-04-16T15:49:33.186Z,23.33
2023-04-16T15:52:00.475Z,21.23
2023-04-16T15:54:27.325Z,24.27
2023-04-16T15:56:54.058Z,21.63
2023-04-16T15:59:20.794Z,23.92
2023-04-16T16:01:47.546Z,23.92
2023-04-16T16:04:14.517Z,22.33
2023-04-16T16:06:41.918Z,21.52
2023-04-16T16:09:09.022Z,26.98
2023-04-16T16:11:37.254Z,21.38
2023-04-16T16:14:04.255Z,24.08
2023-04-16T16:16:31.159Z,22.83
2023-04-16T16:18:57.952Z,21.63
2023-04-16T16:21:24.823Z,23.70
2023-04-16T16:23:51.776Z,21.70
2023-04-16T16:26:18.735Z,25.27
2023-04-16T16:28:46.043Z,22.63
2023-04-16T16:31:12.855Z,24.23
2023-04-16T16:33:40.655Z,23.17
2023-04-16T16:36:10.802Z,23.48
2023-04-16T16:38:38.034Z,22.02
2023-04-16T16:41:04.697Z,22.50
2023-04-16T16:43:31.532Z,25.45
2023-04-16T16:45:58.332Z,25.35
2023-04-16T16:48:25.428Z,22.40
2023-04-16T16:50:52.156Z,21.50
2023-04-16T16:53:18.805Z,26.83
2023-04-16T16:55:45.857Z,24.48
2023-04-16T16:58:12.571Z,27.92
2023-04-16T17:00:39.465Z,25.73
2023-04-16T17:03:06.287Z,23.02
2023-04-16T17:05:33.201Z,21.17
2023-04-16T17:07:59.968Z,24.30
2023-04-16T17:10:26.679Z,25.15
2023-04-16T17:12:53.426Z,21.58
2023-04-16T17:15:21.794Z,27.80
2023-04-16T17:17:48.874Z,25.48
2023-04-16T17:20:15.783Z,28.60
2023-04-16T17:22:42.686Z,23.05
2023-04-16T17:25:09.624Z,24.20
2023-04-16T17:27:36.316Z,22.92
2023-04-16T17:30:05.563Z,23.65
2023-04-16T17:32:32.895Z,23.23
2023-04-16T17:35:00.973Z,23.90
2023-04-16T17:37:27.925Z,25.45
2023-04-16T17:39:54.562Z,24.58
2023-04-16T17:42:21.333Z,22.23
2023-04-16T17:44:47.982Z,24.30
2023-04-16T17:47:14.786Z,22.35
2023-04-16T17:49:41.464Z,28.13
2023-04-16T17:52:08.155Z,28.10
2023-04-16T17:54:34.744Z,26.15
2023-04-16T17:57:02.118Z,23.92
2023-04-16T17:59:28.989Z,22.80
2023-04-16T18:01:56.705Z,29.70
2023-04-16T18:04:23.891Z,28.88
2023-04-16T18:06:50.991Z,26.33
2023-04-16T18:09:19.370Z,29.13
2023-04-16T18:11:46.133Z,29.05
2023-04-16T18:14:16.767Z,29.20
2023-04-16T18:16:43.571Z,25.90
2023-04-16T18:19:10.166Z,26.85
2023-04-16T18:21:36.866Z,30.05
2023-04-16T18:24:03.655Z,30.02
2023-04-16T18:26:31.179Z,29.67
2023-04-16T18:28:59.006Z,31.23
2023-04-16T18:31:26.788Z,28.85
2023-04-16T18:33:58.145Z,27.20
2023-04-16T18:36:26.938Z,37.65
2023-04-16T18:39:01.654Z,30.15
2023-04-16T18:41:29.787Z,31.80
2023-04-16T18:43:56.556Z,31.65
2023-04-16T18:46:23.335Z,27.08
2023-04-16T18:48:50.042Z,26.73
2023-04-16T18:51:16.915Z,32.15
2023-04-16T18:53:45.608Z,27.25
2023-04-16T18:56:12.725Z,31.23
2023-04-16T18:58:39.383Z,30.25
2023-04-16T19:01:11.323Z,27.83
2023-04-16T19:03:38.445Z,29.15
2023-04-16T19:06:06.091Z,31.60
2023-04-16T19:08:32.800Z,31.27
2023-04-16T19:10:59.479Z,32.38
2023-04-16T19:13:26.280Z,32.30
2023-04-16T19:15:59.956Z,28.15
2023-04-16T19:18:26.946Z,32.10
2023-04-16T19:21:00.830Z,29.33
2023-04-16T19:23:27.990Z,32.88
2023-04-16T19:25:56.968Z,37.65
2023-04-16T19:28:24.660Z,34.65
2023-04-16T19:30:52.185Z,32.63
2023-04-16T19:33:19.169Z,35.92
2023-04-16T19:35:46.606Z,34.67
2023-04-16T19:38:13.294Z,35.10
2023-04-16T19:40:40.472Z,34.28
2023-04-16T19:43:07.220Z,35.75
2023-04-16T19:45:33.981Z,36.70
2023-04-16T19:48:00.867Z,36.33
2023-04-16T19:50:27.678Z,36.97
2023-04-16T19:52:54.317Z,36.63
2023-04-16T19:55:21.044Z,35.60
2023-04-16T19:57:48.155Z,41.88
2023-04-16T20:00:15.290Z,37.00
2023-04-16T20:02:42.133Z,37.50
2023-04-16T20:05:09.468Z,34.90
2023-04-16T20:07:36.152Z,36.38
2023-04-16T20:10:03.175Z,32.40
2023-04-16T20:12:29.890Z,34.03
2023-04-16T20:14:56.630Z,38.42
2023-04-16T20:17:23.355Z,37.88
2023-04-16T20:19:51.412Z,35.97
2023-04-16T20:22:18.901Z,37.85
2023-04-16T20:24:47.871Z,34.92
2023-04-16T20:27:15.437Z,34.63
2023-04-16T20:29:42.334Z,36.80
2023-04-16T20:32:09.197Z,34.28
2023-04-16T20:34:36.726Z,38.42
2023-04-16T20:37:06.449Z,40.53
2023-04-16T20:39:34.309Z,37.22
2023-04-16T20:42:04.245Z,32.20
2023-04-16T20:44:40.623Z,39.88
2023-04-16T20:47:11.812Z,38.03
2023-04-16T20:49:38.558Z,40.83
2023-04-16T20:52:05.730Z,35.85
2023-04-16T20:54:32.358Z,42.72
2023-04-16T20:56:59.144Z,36.65
2023-04-16T20:59:26.133Z,38.90
2023-04-16T21:01:52.816Z,41.97
2023-04-16T21:04:19.727Z,39.65
2023-04-16T21:06:46.908Z,37.92
2023-04-16T21:09:13.634Z,35.63
2023-04-16T21:11:41.046Z,37.50
2023-04-16T21:14:07.665Z,32.10
2023-04-16T21:16:34.400Z,33.75
2023-04-16T21:19:01.157Z,37.13
2023-04-16T21:21:27.938Z,36.67
2023-04-16T21:23:54.674Z,39.05
2023-04-16T21:26:21.487Z,37.28
2023-04-16T21:28:48.386Z,36.58
2023-04-16T21:31:15.290Z,37.25
2023-04-16T21:33:41.934Z,38.65
2023-04-16T21:36:08.772Z,42.85
2023-04-16T21:38:35.652Z,46.30
2023-04-16T21:41:02.288Z,50.58
2023-04-16T21:43:32.590Z,45.17
2023-04-16T21:45:59.811Z,50.28
2023-04-16T21:48:27.215Z,50.47
2023-04-16T21:51:06.634Z,40.17
2023-04-16T21:53:33.738Z,41.25
2023-04-16T21:56:00.482Z,45.85
2023-04-16T21:58:27.294Z,49.22
2023-04-16T22:00:54.122Z,47.17
2023-04-16T22:03:26.511Z,42.42
2023-04-16T22:05:57.969Z,40.28
2023-04-16T22:08:27.152Z,41.03
2023-04-16T22:11:03.200Z,42.13
2023-04-16T22:13:32.535Z,45.42
2023-04-16T22:16:03.362Z,40.97
2023-04-16T22:18:33.753Z,44.63
2023-04-16T22:21:00.876Z,37.67
2023-04-16T22:23:27.558Z,44.15
2023-04-16T22:25:55.581Z,40.45
2023-04-16T22:28:22.404Z,44.45
2023-04-16T22:30:49.387Z,35.03
2023-04-16T22:33:16.304Z,38.58
2023-04-16T22:35:43.001Z,36.15
2023-04-16T22:38:10.237Z,34.53
2023-04-16T22:40:36.959Z,35.17
2023-04-16T22:43:04.183Z,45.03
2023-04-16T22:45:30.908Z,40.80
2023-04-16T22:47:57.662Z,40.10
2023-04-16T22:50:24.404Z,39.25
2023-04-16T22:52:51.054Z,37.90
2023-04-16T22:55:17.786Z,35.92
2023-04-16T22:57:44.500Z,38.78
2023-04-16T23:00:16.043Z,38.17
2023-04-16T23:02:43.276Z,37.90
2023-04-16T23:05:10.595Z,44.20
2023-04-16T23:07:37.416Z,39.25
2023-04-16T23:10:04.354Z,42.28
2023-04-16T23:12:31.028Z,43.08
2023-04-16T23:14:58.453Z,43.80
2023-04-16T23:17:25.223Z,42.95
2023-04-16T23:19:51.913Z,42.03
2023-04-16T23:22:18.544Z,43.95
2023-04-16T23:24:45.218Z,40.95
2023-04-16T23:27:11.953Z,49.08
2023-04-16T23:29:38.588Z,45.58
2023-04-16T23:32:05.224Z,45.85
2023-04-16T23:34:31.944Z,45.28
2023-04-16T23:36:58.639Z,40.15
2023-04-16T23:39:25.499Z,42.13
2023-04-16T23:41:52.204Z,46.00
2023-04-16T23:44:18.942Z,46.70
2023-04-16T23:46:45.593Z,48.95
2023-04-16T23:49:12.384Z,46.63
2023-04-16T23:51:39.000Z,44.88
2023-04-16T23:54:05.689Z,42.90
2023-04-16T23:56:32.300Z,41.88
2023-04-16T23:58:58.994Z,40.15
